sensor_id;sensor_type;location;lat;lon;timestamp;pressure;altitude;pressure_sealevel;temperature;humidity
72428;BME280;60419;48.880;18.036;2024-03-25T00:02:46;97907.28;;;4.86;73.05
72428;BME280;60419;48.880;18.036;2024-03-25T00:05:31;97919.34;;;4.69;74.05
72428;BME280;60419;48.880;18.036;2024-03-25T00:08:17;97913.22;;;4.83;73.53
72428;BME280;60419;48.880;18.036;2024-03-25T00:11:03;97907.69;;;4.79;73.65
72428;BME280;60419;48.880;18.036;2024-03-25T00:13:48;97905.84;;;5.07;72.33
72428;BME280;60419;48.880;18.036;2024-03-25T00:16:34;97908.44;;;5.26;71.77
72428;BME280;60419;48.880;18.036;2024-03-25T00:19:19;97910.56;;;4.83;73.29
72428;BME280;60419;48.880;18.036;2024-03-25T00:22:05;97909.53;;;4.98;72.93
72428;BME280;60419;48.880;18.036;2024-03-25T00:24:51;97893.66;;;5.29;71.97
72428;BME280;60419;48.880;18.036;2024-03-25T00:27:36;97909.72;;;5.29;71.21
72428;BME280;60419;48.880;18.036;2024-03-25T00:30:22;97905.91;;;5.71;69.59
72428;BME280;60419;48.880;18.036;2024-03-25T00:33:07;97900.19;;;5.50;69.72
72428;BME280;60419;48.880;18.036;2024-03-25T00:35:52;97899.53;;;5.81;68.65
72428;BME280;60419;48.880;18.036;2024-03-25T00:38:38;97899.88;;;5.66;69.25
72428;BME280;60419;48.880;18.036;2024-03-25T00:41:23;97894.44;;;5.57;69.21
72428;BME280;60419;48.880;18.036;2024-03-25T00:44:09;97866.84;;;5.56;68.93
72428;BME280;60419;48.880;18.036;2024-03-25T00:46:55;97891.88;;;5.52;69.11
72428;BME280;60419;48.880;18.036;2024-03-25T00:49:41;97883.81;;;5.38;69.96
72428;BME280;60419;48.880;18.036;2024-03-25T00:52:26;97880.66;;;5.22;68.91
72428;BME280;60419;48.880;18.036;2024-03-25T00:55:11;97868.50;;;5.66;67.79
72428;BME280;60419;48.880;18.036;2024-03-25T00:57:57;97857.63;;;5.85;67.09
72428;BME280;60419;48.880;18.036;2024-03-25T01:00:42;97873.25;;;5.19;68.65
72428;BME280;60419;48.880;18.036;2024-03-25T01:03:28;97872.50;;;5.41;68.89
72428;BME280;60419;48.880;18.036;2024-03-25T01:06:13;97878.22;;;4.65;71.58
72428;BME280;60419;48.880;18.036;2024-03-25T01:08:58;97875.94;;;4.59;71.83
72428;BME280;60419;48.880;18.036;2024-03-25T01:11:44;97875.13;;;4.12;74.53
72428;BME280;60419;48.880;18.036;2024-03-25T01:14:29;97880.06;;;4.18;74.29
72428;BME280;60419;48.880;18.036;2024-03-25T01:17:15;97881.75;;;4.47;73.75
72428;BME280;60419;48.880;18.036;2024-03-25T01:20:00;97886.88;;;4.76;72.59
72428;BME280;60419;48.880;18.036;2024-03-25T01:22:45;97878.44;;;4.69;72.42
72428;BME280;60419;48.880;18.036;2024-03-25T01:25:31;97881.38;;;5.00;71.66
72428;BME280;60419;48.880;18.036;2024-03-25T01:28:16;97878.47;;;4.97;72.11
72428;BME280;60419;48.880;18.036;2024-03-25T01:31:02;97878.09;;;5.03;70.69
72428;BME280;60419;48.880;18.036;2024-03-25T01:33:47;97879.31;;;4.97;72.12
72428;BME280;60419;48.880;18.036;2024-03-25T01:36:32;97874.38;;;4.85;71.94
72428;BME280;60419;48.880;18.036;2024-03-25T01:39:19;97870.84;;;5.04;71.55
72428;BME280;60419;48.880;18.036;2024-03-25T01:42:05;97857.97;;;5.06;71.85
72428;BME280;60419;48.880;18.036;2024-03-25T01:44:50;97876.53;;;5.02;72.25
72428;BME280;60419;48.880;18.036;2024-03-25T01:47:36;97866.97;;;4.82;72.44
72428;BME280;60419;48.880;18.036;2024-03-25T01:50:24;97843.75;;;4.50;73.05
72428;BME280;60419;48.880;18.036;2024-03-25T01:53:11;97876.13;;;4.48;73.42
72428;BME280;60419;48.880;18.036;2024-03-25T01:55:57;97874.56;;;4.61;73.42
72428;BME280;60419;48.880;18.036;2024-03-25T01:58:44;97861.00;;;4.25;73.29
72428;BME280;60419;48.880;18.036;2024-03-25T02:01:30;97869.91;;;4.34;74.34
72428;BME280;60419;48.880;18.036;2024-03-25T02:04:15;97867.06;;;4.31;73.60
72428;BME280;60419;48.880;18.036;2024-03-25T02:07:02;97860.06;;;4.16;75.29
72428;BME280;60419;48.880;18.036;2024-03-25T02:09:47;97868.16;;;4.11;75.02
72428;BME280;60419;48.880;18.036;2024-03-25T02:12:33;97862.22;;;3.81;76.19
72428;BME280;60419;48.880;18.036;2024-03-25T02:15:19;97840.75;;;3.86;74.70
72428;BME280;60419;48.880;18.036;2024-03-25T02:18:04;97865.56;;;4.24;74.42
72428;BME280;60419;48.880;18.036;2024-03-25T02:20:50;97853.34;;;4.18;73.81
72428;BME280;60419;48.880;18.036;2024-03-25T02:23:38;97873.47;;;4.62;72.68
72428;BME280;60419;48.880;18.036;2024-03-25T02:26:24;97860.31;;;4.33;74.06
72428;BME280;60419;48.880;18.036;2024-03-25T02:29:09;97871.13;;;4.88;73.01
72428;BME280;60419;48.880;18.036;2024-03-25T02:31:56;97868.94;;;4.77;72.88
72428;BME280;60419;48.880;18.036;2024-03-25T02:34:45;97873.72;;;4.94;73.64
72428;BME280;60419;48.880;18.036;2024-03-25T02:37:32;97843.53;;;4.46;73.47
72428;BME280;60419;48.880;18.036;2024-03-25T02:40:18;97878.19;;;4.52;73.63
72428;BME280;60419;48.880;18.036;2024-03-25T02:43:04;97856.88;;;4.33;74.03
72428;BME280;60419;48.880;18.036;2024-03-25T02:45:52;97874.91;;;4.41;73.85
72428;BME280;60419;48.880;18.036;2024-03-25T02:48:37;97872.34;;;4.49;73.75
72428;BME280;60419;48.880;18.036;2024-03-25T02:51:23;97869.06;;;4.53;73.95
72428;BME280;60419;48.880;18.036;2024-03-25T02:54:08;97872.38;;;4.63;73.38
72428;BME280;60419;48.880;18.036;2024-03-25T02:56:53;97860.13;;;4.76;73.78
72428;BME280;60419;48.880;18.036;2024-03-25T02:59:39;97865.94;;;4.78;73.31
72428;BME280;60419;48.880;18.036;2024-03-25T03:02:24;97871.44;;;4.87;72.94
72428;BME280;60419;48.880;18.036;2024-03-25T03:05:10;97877.66;;;4.82;73.25
72428;BME280;60419;48.880;18.036;2024-03-25T03:07:55;97867.09;;;5.19;72.53
72428;BME280;60419;48.880;18.036;2024-03-25T03:10:40;97832.47;;;4.81;72.76
72428;BME280;60419;48.880;18.036;2024-03-25T03:13:26;97868.88;;;4.96;73.72
72428;BME280;60419;48.880;18.036;2024-03-25T03:16:11;97867.09;;;5.19;72.44
72428;BME280;60419;48.880;18.036;2024-03-25T03:18:56;97863.75;;;5.63;70.54
72428;BME280;60419;48.880;18.036;2024-03-25T03:21:42;97863.66;;;5.68;69.25
72428;BME280;60419;48.880;18.036;2024-03-25T03:24:27;97867.66;;;5.57;70.89
72428;BME280;60419;48.880;18.036;2024-03-25T03:27:13;97872.47;;;5.05;71.74
72428;BME280;60419;48.880;18.036;2024-03-25T03:29:58;97857.16;;;5.33;70.52
72428;BME280;60419;48.880;18.036;2024-03-25T03:32:43;97873.47;;;5.59;70.05
72428;BME280;60419;48.880;18.036;2024-03-25T03:35:29;97870.78;;;5.73;69.49
72428;BME280;60419;48.880;18.036;2024-03-25T03:38:14;97872.06;;;5.75;69.40
72428;BME280;60419;48.880;18.036;2024-03-25T03:41:01;97839.53;;;5.04;70.23
72428;BME280;60419;48.880;18.036;2024-03-25T03:43:47;97870.97;;;5.26;70.38
72428;BME280;60419;48.880;18.036;2024-03-25T03:46:32;97871.84;;;5.22;71.56
72428;BME280;60419;48.880;18.036;2024-03-25T03:49:17;97875.81;;;5.24;71.23
72428;BME280;60419;48.880;18.036;2024-03-25T03:52:03;97845.88;;;5.08;71.43
72428;BME280;60419;48.880;18.036;2024-03-25T03:54:48;97879.06;;;5.07;71.73
72428;BME280;60419;48.880;18.036;2024-03-25T03:57:34;97870.41;;;4.83;72.35
72428;BME280;60419;48.880;18.036;2024-03-25T04:00:19;97878.19;;;4.52;74.05
72428;BME280;60419;48.880;18.036;2024-03-25T04:03:05;97872.69;;;4.29;74.96
72428;BME280;60419;48.880;18.036;2024-03-25T04:05:51;97863.50;;;4.35;74.54
72428;BME280;60419;48.880;18.036;2024-03-25T04:08:37;97869.22;;;4.61;74.74
72428;BME280;60419;48.880;18.036;2024-03-25T04:11:22;97871.47;;;4.54;74.18
72428;BME280;60419;48.880;18.036;2024-03-25T04:14:08;97878.03;;;4.62;74.10
72428;BME280;60419;48.880;18.036;2024-03-25T04:16:53;97876.78;;;4.40;74.67
72428;BME280;60419;48.880;18.036;2024-03-25T04:19:39;97874.16;;;4.54;73.75
72428;BME280;60419;48.880;18.036;2024-03-25T04:22:25;97881.19;;;4.50;74.26
72428;BME280;60419;48.880;18.036;2024-03-25T04:25:11;97884.06;;;4.54;74.16
72428;BME280;60419;48.880;18.036;2024-03-25T04:27:57;97881.38;;;4.54;73.60
72428;BME280;60419;48.880;18.036;2024-03-25T04:30:42;97864.81;;;4.52;73.87
72428;BME280;60419;48.880;18.036;2024-03-25T04:33:28;97877.25;;;4.29;75.05
72428;BME280;60419;48.880;18.036;2024-03-25T04:36:13;97878.13;;;4.70;73.91
72428;BME280;60419;48.880;18.036;2024-03-25T04:38:58;97877.09;;;4.99;72.79
72428;BME280;60419;48.880;18.036;2024-03-25T04:41:44;97879.31;;;4.78;72.78
72428;BME280;60419;48.880;18.036;2024-03-25T04:44:29;97883.19;;;4.86;72.82
72428;BME280;60419;48.880;18.036;2024-03-25T04:47:15;97882.41;;;4.72;73.05
72428;BME280;60419;48.880;18.036;2024-03-25T04:50:00;97891.91;;;4.78;72.93
72428;BME280;60419;48.880;18.036;2024-03-25T04:52:45;97890.34;;;4.90;73.17
72428;BME280;60419;48.880;18.036;2024-03-25T04:55:31;97890.28;;;4.96;72.94
72428;BME280;60419;48.880;18.036;2024-03-25T04:58:16;97890.09;;;4.26;75.83
72428;BME280;60419;48.880;18.036;2024-03-25T05:01:02;97886.53;;;4.50;74.35
72428;BME280;60419;48.880;18.036;2024-03-25T05:03:47;97893.97;;;4.53;74.72
72428;BME280;60419;48.880;18.036;2024-03-25T05:06:32;97882.94;;;4.41;74.65
72428;BME280;60419;48.880;18.036;2024-03-25T05:09:18;97888.00;;;4.42;75.80
72428;BME280;60419;48.880;18.036;2024-03-25T05:12:03;97896.03;;;4.56;74.10
72428;BME280;60419;48.880;18.036;2024-03-25T05:14:49;97901.97;;;4.53;74.35
72428;BME280;60419;48.880;18.036;2024-03-25T05:17:34;97905.78;;;4.66;74.19
72428;BME280;60419;48.880;18.036;2024-03-25T05:20:19;97903.19;;;4.61;74.02
72428;BME280;60419;48.880;18.036;2024-03-25T05:23:06;97908.38;;;4.71;73.80
72428;BME280;60419;48.880;18.036;2024-03-25T05:25:52;97908.47;;;4.47;75.29
72428;BME280;60419;48.880;18.036;2024-03-25T05:28:37;97916.13;;;4.40;75.17
72428;BME280;60419;48.880;18.036;2024-03-25T05:31:23;97911.84;;;4.39;75.09
72428;BME280;60419;48.880;18.036;2024-03-25T05:34:09;97921.56;;;4.48;74.97
72428;BME280;60419;48.880;18.036;2024-03-25T05:36:55;97929.97;;;4.75;74.02
72428;BME280;60419;48.880;18.036;2024-03-25T05:39:40;97928.59;;;4.77;73.07
72428;BME280;60419;48.880;18.036;2024-03-25T05:42:25;97901.41;;;4.56;72.95
72428;BME280;60419;48.880;18.036;2024-03-25T05:45:11;97933.44;;;4.75;72.71
72428;BME280;60419;48.880;18.036;2024-03-25T05:47:57;97935.38;;;4.56;73.57
72428;BME280;60419;48.880;18.036;2024-03-25T05:50:42;97930.25;;;4.73;73.31
72428;BME280;60419;48.880;18.036;2024-03-25T05:53:28;97931.44;;;4.67;73.17
72428;BME280;60419;48.880;18.036;2024-03-25T05:56:14;97905.88;;;4.75;78.39
72428;BME280;60419;48.880;18.036;2024-03-25T05:59:00;97946.63;;;4.72;73.53
72428;BME280;60419;48.880;18.036;2024-03-25T06:01:46;97943.59;;;4.59;73.48
72428;BME280;60419;48.880;18.036;2024-03-25T06:04:32;97928.25;;;5.11;72.81
72428;BME280;60419;48.880;18.036;2024-03-25T06:07:18;97942.66;;;4.83;72.81
72428;BME280;60419;48.880;18.036;2024-03-25T06:10:03;97930.06;;;4.69;73.21
72428;BME280;60419;48.880;18.036;2024-03-25T06:12:49;97943.31;;;4.61;73.96
72428;BME280;60419;48.880;18.036;2024-03-25T06:15:34;97947.13;;;4.87;73.25
72428;BME280;60419;48.880;18.036;2024-03-25T06:18:20;97941.09;;;4.82;72.73
72428;BME280;60419;48.880;18.036;2024-03-25T06:21:05;97943.38;;;4.88;72.97
72428;BME280;60419;48.880;18.036;2024-03-25T06:23:51;97950.00;;;4.91;72.67
72428;BME280;60419;48.880;18.036;2024-03-25T06:26:36;97956.00;;;5.02;71.74
72428;BME280;60419;48.880;18.036;2024-03-25T06:29:22;97940.19;;;5.47;70.85
72428;BME280;60419;48.880;18.036;2024-03-25T06:32:07;97951.94;;;5.04;71.78
72428;BME280;60419;48.880;18.036;2024-03-25T06:35:11;97958.69;;;5.02;71.21
72428;BME280;60419;48.880;18.036;2024-03-25T06:37:58;97956.72;;;5.21;70.77
72428;BME280;60419;48.880;18.036;2024-03-25T06:40:45;97952.84;;;5.41;70.01
72428;BME280;60419;48.880;18.036;2024-03-25T06:43:30;97966.66;;;5.48;70.23
72428;BME280;60419;48.880;18.036;2024-03-25T06:46:17;97972.28;;;5.33;70.14
72428;BME280;60419;48.880;18.036;2024-03-25T06:49:02;97964.97;;;5.39;69.89
72428;BME280;60419;48.880;18.036;2024-03-25T06:51:47;97968.91;;;5.41;71.33
72428;BME280;60419;48.880;18.036;2024-03-25T06:54:33;97967.22;;;5.18;70.43
72428;BME280;60419;48.880;18.036;2024-03-25T06:57:18;97980.44;;;5.42;70.43
72428;BME280;60419;48.880;18.036;2024-03-25T07:00:04;97970.81;;;5.41;69.69
72428;BME280;60419;48.880;18.036;2024-03-25T07:02:52;97973.63;;;5.49;69.95
72428;BME280;60419;48.880;18.036;2024-03-25T07:05:37;97966.56;;;5.40;70.72
72428;BME280;60419;48.880;18.036;2024-03-25T07:08:23;97979.94;;;5.40;69.97
72428;BME280;60419;48.880;18.036;2024-03-25T07:11:08;97973.88;;;5.62;70.58
72428;BME280;60419;48.880;18.036;2024-03-25T07:13:53;97971.63;;;5.55;69.33
72428;BME280;60419;48.880;18.036;2024-03-25T07:16:39;97975.56;;;5.71;69.71
72428;BME280;60419;48.880;18.036;2024-03-25T07:19:24;97968.44;;;5.53;69.01
72428;BME280;60419;48.880;18.036;2024-03-25T07:22:10;97982.44;;;5.64;69.87
72428;BME280;60419;48.880;18.036;2024-03-25T07:24:55;97980.81;;;5.90;68.64
72428;BME280;60419;48.880;18.036;2024-03-25T07:27:41;97973.28;;;5.78;68.38
72428;BME280;60419;48.880;18.036;2024-03-25T07:30:26;97971.91;;;5.67;69.11
72428;BME280;60419;48.880;18.036;2024-03-25T07:33:14;97987.13;;;6.08;68.27
72428;BME280;60419;48.880;18.036;2024-03-25T07:36:00;97999.31;;;5.78;67.68
72428;BME280;60419;48.880;18.036;2024-03-25T07:38:45;98001.16;;;5.77;68.15
72428;BME280;60419;48.880;18.036;2024-03-25T07:41:30;97997.91;;;5.81;68.22
72428;BME280;60419;48.880;18.036;2024-03-25T07:44:16;97969.81;;;5.78;69.23
72428;BME280;60419;48.880;18.036;2024-03-25T07:47:01;98006.53;;;5.77;68.85
72428;BME280;60419;48.880;18.036;2024-03-25T07:49:47;98014.47;;;5.83;68.65
72428;BME280;60419;48.880;18.036;2024-03-25T07:52:32;98001.94;;;6.06;67.60
72428;BME280;60419;48.880;18.036;2024-03-25T07:55:18;98006.41;;;5.83;68.48
72428;BME280;60419;48.880;18.036;2024-03-25T07:58:03;98016.28;;;5.73;67.39
72428;BME280;60419;48.880;18.036;2024-03-25T08:00:49;98013.88;;;5.72;68.43
72428;BME280;60419;48.880;18.036;2024-03-25T08:03:34;98028.56;;;5.61;68.79
72428;BME280;60419;48.880;18.036;2024-03-25T08:06:20;98045.75;;;5.73;69.60
72428;BME280;60419;48.880;18.036;2024-03-25T08:09:06;98031.66;;;5.68;69.82
72428;BME280;60419;48.880;18.036;2024-03-25T08:11:51;98029.47;;;5.84;70.14
72428;BME280;60419;48.880;18.036;2024-03-25T08:14:37;98047.31;;;5.47;70.40
72428;BME280;60419;48.880;18.036;2024-03-25T08:17:22;98051.13;;;4.94;70.37
72428;BME280;60419;48.880;18.036;2024-03-25T08:20:08;98051.19;;;5.08;71.11
72428;BME280;60419;48.880;18.036;2024-03-25T08:22:53;98043.28;;;5.17;71.49
72428;BME280;60419;48.880;18.036;2024-03-25T08:25:39;98027.25;;;5.30;70.16
72428;BME280;60419;48.880;18.036;2024-03-25T08:28:24;98036.50;;;5.52;69.91
72428;BME280;60419;48.880;18.036;2024-03-25T08:31:10;98049.00;;;5.56;69.37
72428;BME280;60419;48.880;18.036;2024-03-25T08:33:55;98048.41;;;5.73;69.06
72428;BME280;60419;48.880;18.036;2024-03-25T08:36:40;98039.78;;;6.04;68.60
72428;BME280;60419;48.880;18.036;2024-03-25T08:39:26;98033.28;;;6.55;68.09
72428;BME280;60419;48.880;18.036;2024-03-25T08:42:11;98041.00;;;6.34;69.22
72428;BME280;60419;48.880;18.036;2024-03-25T08:44:57;98044.91;;;6.64;68.43
72428;BME280;60419;48.880;18.036;2024-03-25T08:47:44;98024.50;;;6.41;68.53
72428;BME280;60419;48.880;18.036;2024-03-25T08:50:30;98032.31;;;6.15;68.92
72428;BME280;60419;48.880;18.036;2024-03-25T08:53:15;98019.81;;;6.47;68.66
72428;BME280;60419;48.880;18.036;2024-03-25T08:56:00;98049.22;;;7.19;66.61
72428;BME280;60419;48.880;18.036;2024-03-25T08:58:46;98046.44;;;7.02;65.08
72428;BME280;60419;48.880;18.036;2024-03-25T09:01:31;98048.75;;;6.95;65.90
72428;BME280;60419;48.880;18.036;2024-03-25T09:04:16;98043.25;;;6.55;67.45
72428;BME280;60419;48.880;18.036;2024-03-25T09:07:02;98018.06;;;6.64;65.50
72428;BME280;60419;48.880;18.036;2024-03-25T09:09:48;98050.72;;;6.80;63.58
72428;BME280;60419;48.880;18.036;2024-03-25T09:12:52;98050.22;;;6.78;64.06
72428;BME280;60419;48.880;18.036;2024-03-25T09:15:37;98045.13;;;7.22;63.31
72428;BME280;60419;48.880;18.036;2024-03-25T09:18:23;98041.47;;;7.40;62.40
72428;BME280;60419;48.880;18.036;2024-03-25T09:21:08;98031.66;;;7.13;60.89
72428;BME280;60419;48.880;18.036;2024-03-25T09:23:54;98047.44;;;7.37;60.51
72428;BME280;60419;48.880;18.036;2024-03-25T09:26:40;98050.84;;;7.51;59.21
72428;BME280;60419;48.880;18.036;2024-03-25T09:29:26;98051.22;;;7.36;59.37
72428;BME280;60419;48.880;18.036;2024-03-25T09:32:11;98058.50;;;7.67;58.24
72428;BME280;60419;48.880;18.036;2024-03-25T09:34:57;98015.94;;;6.98;57.52
72428;BME280;60419;48.880;18.036;2024-03-25T09:37:42;98047.59;;;7.09;56.91
72428;BME280;60419;48.880;18.036;2024-03-25T09:40:28;98049.94;;;7.56;55.28
72428;BME280;60419;48.880;18.036;2024-03-25T09:43:27;98049.94;;;7.56;57.06
72428;BME280;60419;48.880;18.036;2024-03-25T09:46:15;98007.16;;;7.37;56.83
72428;BME280;60419;48.880;18.036;2024-03-25T09:49:00;98034.88;;;7.95;56.84
72428;BME280;60419;48.880;18.036;2024-03-25T09:51:50;98038.25;;;8.18;55.61
72428;BME280;60419;48.880;18.036;2024-03-25T09:54:36;98041.41;;;8.20;55.69
72428;BME280;60419;48.880;18.036;2024-03-25T09:57:21;98008.56;;;7.74;54.66
72428;BME280;60419;48.880;18.036;2024-03-25T10:00:08;98037.94;;;8.19;55.46
72428;BME280;60419;48.880;18.036;2024-03-25T10:02:54;98042.19;;;8.03;53.13
72428;BME280;60419;48.880;18.036;2024-03-25T10:05:39;98049.03;;;8.27;54.39
72428;BME280;60419;48.880;18.036;2024-03-25T10:08:25;98048.03;;;8.05;55.05
72428;BME280;60419;48.880;18.036;2024-03-25T10:11:15;98058.09;;;7.42;56.24
72428;BME280;60419;48.880;18.036;2024-03-25T10:14:01;98055.31;;;7.33;56.71
72428;BME280;60419;48.880;18.036;2024-03-25T10:16:48;98059.25;;;7.59;58.41
72428;BME280;60419;48.880;18.036;2024-03-25T10:19:37;98057.84;;;7.39;58.32
72428;BME280;60419;48.880;18.036;2024-03-25T10:22:24;98053.59;;;7.38;60.07
72428;BME280;60419;48.880;18.036;2024-03-25T10:25:26;98058.13;;;7.28;59.93
72428;BME280;60419;48.880;18.036;2024-03-25T10:28:13;98049.56;;;6.95;60.77
72428;BME280;60419;48.880;18.036;2024-03-25T10:31:04;98050.28;;;7.63;59.65
72428;BME280;60419;48.880;18.036;2024-03-25T10:33:51;98031.63;;;8.15;57.64
72428;BME280;60419;48.880;18.036;2024-03-25T10:36:37;98036.56;;;8.57;57.73
72428;BME280;60419;48.880;18.036;2024-03-25T10:39:26;98043.69;;;8.79;54.33
72428;BME280;60419;48.880;18.036;2024-03-25T10:42:14;98033.84;;;8.48;54.16
72428;BME280;60419;48.880;18.036;2024-03-25T10:45:00;98042.09;;;8.34;53.21
72428;BME280;60419;48.880;18.036;2024-03-25T10:47:46;98032.59;;;8.54;54.00
72428;BME280;60419;48.880;18.036;2024-03-25T10:50:34;98026.09;;;8.55;56.37
72428;BME280;60419;48.880;18.036;2024-03-25T10:53:21;98020.72;;;8.38;58.18
72428;BME280;60419;48.880;18.036;2024-03-25T10:56:08;98030.16;;;8.09;55.14
72428;BME280;60419;48.880;18.036;2024-03-25T10:58:55;98039.84;;;8.28;57.76
72428;BME280;60419;48.880;18.036;2024-03-25T11:01:41;98042.88;;;7.77;57.79
72428;BME280;60419;48.880;18.036;2024-03-25T11:04:27;98043.47;;;8.06;58.72
72428;BME280;60419;48.880;18.036;2024-03-25T11:07:13;98038.56;;;7.68;57.20
72428;BME280;60419;48.880;18.036;2024-03-25T11:10:03;98054.03;;;7.53;56.68
72428;BME280;60419;48.880;18.036;2024-03-25T11:12:52;98050.72;;;7.57;56.30
72428;BME280;60419;48.880;18.036;2024-03-25T11:15:47;98051.13;;;6.96;56.86
72428;BME280;60419;48.880;18.036;2024-03-25T11:18:33;98045.16;;;6.99;57.97
72428;BME280;60419;48.880;18.036;2024-03-25T11:21:25;98058.69;;;7.39;56.59
72428;BME280;60419;48.880;18.036;2024-03-25T11:24:10;98026.94;;;7.41;55.39
72428;BME280;60419;48.880;18.036;2024-03-25T11:26:56;98060.66;;;7.96;55.11
72428;BME280;60419;48.880;18.036;2024-03-25T11:29:41;98046.78;;;8.11;54.03
72428;BME280;60419;48.880;18.036;2024-03-25T11:32:27;98048.28;;;7.86;55.02
72428;BME280;60419;48.880;18.036;2024-03-25T11:35:13;98037.47;;;8.26;55.06
72428;BME280;60419;48.880;18.036;2024-03-25T11:37:58;98045.09;;;8.41;55.00
72428;BME280;60419;48.880;18.036;2024-03-25T11:40:45;98046.69;;;8.42;54.47
72428;BME280;60419;48.880;18.036;2024-03-25T11:43:30;98038.00;;;8.54;53.81
72428;BME280;60419;48.880;18.036;2024-03-25T11:46:19;98026.09;;;8.38;54.47
72428;BME280;60419;48.880;18.036;2024-03-25T11:49:11;98025.94;;;8.69;54.12
72428;BME280;60419;48.880;18.036;2024-03-25T11:51:59;98027.84;;;8.77;52.66
72428;BME280;60419;48.880;18.036;2024-03-25T11:54:44;98025.44;;;8.93;53.33
72428;BME280;60419;48.880;18.036;2024-03-25T11:57:30;98030.97;;;9.05;53.32
72428;BME280;60419;48.880;18.036;2024-03-25T12:00:15;98019.38;;;9.14;51.38
72428;BME280;60419;48.880;18.036;2024-03-25T12:03:01;98016.75;;;8.96;53.24
72428;BME280;60419;48.880;18.036;2024-03-25T12:05:48;98013.09;;;8.92;52.91
72428;BME280;60419;48.880;18.036;2024-03-25T12:08:33;97993.81;;;8.47;53.26
72428;BME280;60419;48.880;18.036;2024-03-25T12:11:21;98019.75;;;8.16;53.32
72428;BME280;60419;48.880;18.036;2024-03-25T12:14:07;98034.41;;;8.02;55.18
72428;BME280;60419;48.880;18.036;2024-03-25T12:16:53;98010.19;;;7.84;55.47
72428;BME280;60419;48.880;18.036;2024-03-25T12:19:39;98034.66;;;8.40;55.88
72428;BME280;60419;48.880;18.036;2024-03-25T12:22:26;98033.88;;;8.66;55.37
72428;BME280;60419;48.880;18.036;2024-03-25T12:25:12;98043.75;;;8.04;55.66
72428;BME280;60419;48.880;18.036;2024-03-25T12:27:57;98055.63;;;8.12;56.37
72428;BME280;60419;48.880;18.036;2024-03-25T12:30:50;98057.25;;;8.30;57.18
72428;BME280;60419;48.880;18.036;2024-03-25T12:33:43;98039.53;;;8.90;56.23
72428;BME280;60419;48.880;18.036;2024-03-25T12:36:29;98031.13;;;9.00;55.94
72428;BME280;60419;48.880;18.036;2024-03-25T12:39:19;98038.09;;;9.10;56.42
72428;BME280;60419;48.880;18.036;2024-03-25T12:42:04;98040.03;;;8.31;52.14
72428;BME280;60419;48.880;18.036;2024-03-25T12:44:50;98012.75;;;8.07;55.28
72428;BME280;60419;48.880;18.036;2024-03-25T12:47:36;98041.25;;;7.37;53.79
72428;BME280;60419;48.880;18.036;2024-03-25T12:50:22;98042.13;;;7.23;53.91
72428;BME280;60419;48.880;18.036;2024-03-25T12:53:09;98027.09;;;7.14;54.41
72428;BME280;60419;48.880;18.036;2024-03-25T12:55:54;98041.50;;;6.95;58.58
72428;BME280;60419;48.880;18.036;2024-03-25T12:58:39;98050.66;;;6.72;60.95
72428;BME280;60419;48.880;18.036;2024-03-25T13:01:25;98055.06;;;6.90;62.03
72428;BME280;60419;48.880;18.036;2024-03-25T13:04:10;98049.69;;;6.90;62.26
72428;BME280;60419;48.880;18.036;2024-03-25T13:06:56;98039.81;;;6.63;62.81
72428;BME280;60419;48.880;18.036;2024-03-25T13:09:41;98046.75;;;6.78;62.67
72428;BME280;60419;48.880;18.036;2024-03-25T13:12:26;98058.00;;;7.33;62.25
72428;BME280;60419;48.880;18.036;2024-03-25T13:15:12;98039.81;;;7.62;60.78
72428;BME280;60419;48.880;18.036;2024-03-25T13:17:57;98035.59;;;7.69;60.55
72428;BME280;60419;48.880;18.036;2024-03-25T13:20:44;98080.13;;;7.93;60.33
72428;BME280;60419;48.880;18.036;2024-03-25T13:23:30;98104.63;;;7.91;63.23
72428;BME280;60419;48.880;18.036;2024-03-25T13:26:15;98111.31;;;6.95;65.90
72428;BME280;60419;48.880;18.036;2024-03-25T13:29:01;98134.47;;;6.27;68.87
72428;BME280;60419;48.880;18.036;2024-03-25T13:31:47;98138.31;;;5.66;68.86
72428;BME280;60419;48.880;18.036;2024-03-25T13:34:32;98134.84;;;5.32;72.42
72428;BME280;60419;48.880;18.036;2024-03-25T13:37:18;98148.91;;;4.86;74.60
72428;BME280;60419;48.880;18.036;2024-03-25T13:40:03;98138.94;;;5.11;75.54
72428;BME280;60419;48.880;18.036;2024-03-25T13:42:51;98117.13;;;5.37;76.04
72428;BME280;60419;48.880;18.036;2024-03-25T13:45:36;98078.78;;;5.83;73.52
72428;BME280;60419;48.880;18.036;2024-03-25T13:48:30;98075.38;;;6.32;74.18
72428;BME280;60419;48.880;18.036;2024-03-25T13:51:16;98066.69;;;6.85;75.24
72428;BME280;60419;48.880;18.036;2024-03-25T13:54:01;98078.44;;;7.21;75.44
72428;BME280;60419;48.880;18.036;2024-03-25T13:56:47;98060.56;;;8.18;74.25
72428;BME280;60419;48.880;18.036;2024-03-25T13:59:33;98074.66;;;8.33;69.75
72428;BME280;60419;48.880;18.036;2024-03-25T14:02:19;98071.72;;;8.52;64.98
72428;BME280;60419;48.880;18.036;2024-03-25T14:05:04;98081.84;;;8.81;66.65
72428;BME280;60419;48.880;18.036;2024-03-25T14:07:50;98073.28;;;9.05;62.91
72428;BME280;60419;48.880;18.036;2024-03-25T14:10:35;98078.06;;;8.82;59.24
72428;BME280;60419;48.880;18.036;2024-03-25T14:13:20;98065.69;;;8.90;60.73
72428;BME280;60419;48.880;18.036;2024-03-25T14:16:06;98070.91;;;8.51;59.30
72428;BME280;60419;48.880;18.036;2024-03-25T14:18:51;98071.06;;;8.46;59.89
72428;BME280;60419;48.880;18.036;2024-03-25T14:21:36;98065.22;;;9.05;60.19
72428;BME280;60419;48.880;18.036;2024-03-25T14:24:22;98060.13;;;9.38;61.21
72428;BME280;60419;48.880;18.036;2024-03-25T14:27:07;98059.78;;;9.40;60.67
72428;BME280;60419;48.880;18.036;2024-03-25T14:29:53;98056.13;;;9.44;62.50
72428;BME280;60419;48.880;18.036;2024-03-25T14:32:38;98060.28;;;8.98;61.49
72428;BME280;60419;48.880;18.036;2024-03-25T14:35:23;98059.38;;;8.68;62.99
72428;BME280;60419;48.880;18.036;2024-03-25T14:38:09;98055.34;;;9.44;61.93
72428;BME280;60419;48.880;18.036;2024-03-25T14:40:54;98061.69;;;9.39;62.60